Time;durP1;ratioP1;P1;durP2;ratioP2;P2;SDS_P1;SDS_P2;PMS_P1;PMS_P2;Temp;Humidity;BMP_temperature;BMP_pressure;BME280_temperature;BME280_humidity;BME280_pressure;Samples;Min_cycle;Max_cycle;Signal;HPM_P1;HPM_P2
2022/11/14 00:01:10;;;;;;;114.50;44.40;;;4.10;99.90;;;;;;5019180;28;20256;-71
2022/11/14 00:03:37;;;;;;;114.30;45.73;;;4.10;99.90;;;;;;5025408;28;20211;-71
2022/11/14 00:06:07;;;;;;;112.10;43.40;;;4.10;99.90;;;;;;5019880;28;20229;-72
2022/11/14 00:08:34;;;;;;;103.80;44.73;;;4.10;99.90;;;;;;5009981;28;20338;-71
2022/11/14 00:11:01;;;;;;;128.23;47.10;;;4.10;99.90;;;;;;5019212;28;20236;-71
2022/11/14 00:13:28;;;;;;;118.10;47.57;;;4.00;99.90;;;;;;5021035;28;20272;-72
2022/11/14 00:15:55;;;;;;;123.83;45.87;;;4.00;99.90;;;;;;5021556;28;20211;-72
2022/11/14 00:18:22;;;;;;;125.50;47.27;;;4.00;99.90;;;;;;5006086;28;20575;-72
2022/11/14 00:20:51;;;;;;;108.97;45.47;;;4.00;99.90;;;;;;5022900;28;20838;-72
2022/11/14 00:23:19;;;;;;;130.13;46.73;;;4.00;99.90;;;;;;5002772;28;20725;-73
2022/11/14 00:25:46;;;;;;;138.70;47.03;;;4.00;99.90;;;;;;5022221;28;20241;-71
2022/11/14 00:28:13;;;;;;;123.13;45.17;;;4.00;99.90;;;;;;5018073;28;20248;-72
2022/11/14 00:30:40;;;;;;;135.50;47.40;;;4.00;99.90;;;;;;5023985;28;20296;-71
2022/11/14 00:33:07;;;;;;;114.33;45.10;;;4.00;99.90;;;;;;5018297;28;20213;-72
2022/11/14 00:35:33;;;;;;;132.20;45.40;;;3.90;99.90;;;;;;5019754;28;20240;-72
2022/11/14 00:38:00;;;;;;;129.70;45.13;;;3.90;99.90;;;;;;5020737;28;20207;-73
2022/11/14 00:40:27;;;;;;;138.77;46.93;;;3.90;99.90;;;;;;5021582;28;20530;-71
2022/11/14 00:42:54;;;;;;;114.63;44.37;;;3.90;99.90;;;;;;5019517;28;20644;-71
2022/11/14 00:45:21;;;;;;;119.37;44.77;;;3.90;99.90;;;;;;5020388;28;20231;-72
2022/11/14 00:47:47;;;;;;;120.07;43.90;;;3.80;99.90;;;;;;5021153;28;20770;-71
2022/11/14 00:50:15;;;;;;;125.70;45.23;;;3.80;99.90;;;;;;5021060;28;20646;-71
2022/11/14 00:52:42;;;;;;;120.60;44.73;;;3.80;99.90;;;;;;5024377;28;20287;-71
2022/11/14 00:55:09;;;;;;;130.73;44.27;;;3.80;99.90;;;;;;5023231;28;20299;-72
2022/11/14 00:57:36;;;;;;;125.23;44.63;;;3.80;99.90;;;;;;5019627;28;20243;-71
2022/11/14 01:00:04;;;;;;;122.60;42.63;;;3.80;99.90;;;;;;5021030;28;20569;-71
2022/11/14 01:02:30;;;;;;;107.00;41.60;;;3.70;99.90;;;;;;5023609;28;20398;-71
2022/11/14 01:04:57;;;;;;;97.43;38.70;;;3.70;99.90;;;;;;5022263;28;20292;-72
2022/11/14 01:07:24;;;;;;;107.63;38.67;;;3.70;99.90;;;;;;5017988;28;20336;-72
2022/11/14 01:09:50;;;;;;;110.30;39.97;;;3.60;99.90;;;;;;5021784;28;20287;-71
2022/11/14 01:12:17;;;;;;;100.20;40.40;;;3.60;99.90;;;;;;5019685;28;20210;-71
2022/11/14 01:14:44;;;;;;;115.23;41.87;;;3.60;99.90;;;;;;5020539;28;20210;-72
2022/11/14 01:17:13;;;;;;;112.47;40.93;;;3.70;99.90;;;;;;5009256;28;20208;-70
2022/11/14 01:19:40;;;;;;;129.30;42.73;;;3.50;99.90;;;;;;5003001;28;20204;-72
2022/11/14 01:22:07;;;;;;;186.33;43.50;;;3.50;99.90;;;;;;5020489;28;20316;-71
2022/11/14 01:24:34;;;;;;;141.13;42.03;;;3.40;99.90;;;;;;5022645;28;20253;-72
2022/11/14 01:27:01;;;;;;;144.93;43.70;;;3.40;99.90;;;;;;5020909;28;20293;-71
2022/11/14 01:29:28;;;;;;;238.93;47.40;;;3.40;99.90;;;;;;5018845;28;20230;-71
2022/11/14 01:31:55;;;;;;;154.43;43.50;;;3.40;99.90;;;;;;5025487;28;20243;-71
2022/11/14 01:34:22;;;;;;;151.30;44.90;;;3.40;99.90;;;;;;5023383;28;20204;-70
2022/11/14 01:36:49;;;;;;;164.50;46.07;;;3.40;99.90;;;;;;5018181;28;20231;-71
2022/11/14 01:39:16;;;;;;;161.43;46.60;;;3.40;99.90;;;;;;5021157;28;20674;-71
2022/11/14 01:41:43;;;;;;;160.90;43.27;;;3.40;99.90;;;;;;5018786;28;20308;-70
2022/11/14 01:44:36;;;;;;;153.10;43.93;;;3.40;99.90;;;;;;5020729;28;20535;-71
2022/11/14 01:47:04;;;;;;;163.93;41.83;;;3.40;99.90;;;;;;5017988;28;20622;-71
2022/11/14 01:49:38;;;;;;;130.67;41.33;;;3.40;99.90;;;;;;5021013;28;20231;-72
2022/11/14 01:52:12;;;;;;;234.53;44.63;;;3.40;99.90;;;;;;5008063;28;20425;-72
2022/11/14 01:54:44;;;;;;;264.30;46.70;;;3.40;99.90;;;;;;5021080;28;20205;-71
2022/11/14 01:57:13;;;;;;;280.20;48.40;;;3.40;99.90;;;;;;5022599;28;20692;-70
2022/11/14 01:59:45;;;;;;;306.13;53.07;;;3.40;99.90;;;;;;5022092;28;20200;-71
2022/11/14 02:02:21;;;;;;;227.20;44.07;;;3.40;99.90;;;;;;5021146;28;20579;-72
2022/11/14 02:04:54;;;;;;;211.30;46.27;;;3.40;99.90;;;;;;5025148;28;20200;-71
2022/11/14 02:07:23;;;;;;;263.93;43.67;;;3.30;99.90;;;;;;5022622;28;20229;-71
2022/11/14 02:09:51;;;;;;;197.23;43.57;;;3.30;99.90;;;;;;5008748;28;20319;-72
2022/11/14 02:12:19;;;;;;;264.67;46.80;;;3.30;99.90;;;;;;5021118;28;20296;-70
2022/11/14 02:14:49;;;;;;;344.67;50.33;;;3.30;99.90;;;;;;5025418;28;20203;-71
2022/11/14 02:17:18;;;;;;;311.93;49.60;;;3.30;99.90;;;;;;5020992;28;20213;-71
2022/11/14 02:20:18;;;;;;;248.20;44.23;;;3.30;99.90;;;;;;5024220;28;20200;-72
2022/11/14 02:22:45;;;;;;;458.33;54.03;;;3.30;99.90;;;;;;5023086;28;20270;-71
2022/11/14 02:25:15;;;;;;;377.50;46.97;;;3.30;99.90;;;;;;5025331;28;20208;-72
2022/11/14 02:27:42;;;;;;;256.43;40.37;;;3.30;99.90;;;;;;5015971;28;20221;-72
2022/11/14 02:30:16;;;;;;;300.50;44.13;;;3.30;99.90;;;;;;5023468;28;20570;-70
2022/11/14 02:32:43;;;;;;;216.60;38.73;;;3.30;99.90;;;;;;5004756;28;20298;-71
2022/11/14 02:35:29;;;;;;;273.47;40.23;;;3.30;99.90;;;;;;5023307;28;20208;-71
2022/11/14 02:37:56;;;;;;;318.13;46.90;;;3.30;99.90;;;;;;5004459;28;21003;-70
2022/11/14 02:40:23;;;;;;;194.13;40.13;;;3.30;99.90;;;;;;5024063;28;20557;-71
2022/11/14 02:42:50;;;;;;;341.87;48.10;;;3.30;99.90;;;;;;5004911;28;20572;-71
2022/11/14 02:45:18;;;;;;;395.60;46.63;;;3.30;99.90;;;;;;5024116;28;20323;-72
2022/11/14 02:47:45;;;;;;;431.23;48.93;;;3.30;99.90;;;;;;5021128;28;20253;-71
2022/11/14 02:50:12;;;;;;;483.17;53.63;;;3.20;99.90;;;;;;5024564;28;20244;-71
2022/11/14 02:52:38;;;;;;;460.43;50.70;;;3.20;99.90;;;;;;5010029;28;20312;-71
2022/11/14 02:55:05;;;;;;;448.57;49.87;;;3.20;99.90;;;;;;5026999;28;20337;-71
2022/11/14 02:57:32;;;;;;;355.70;40.37;;;3.20;99.90;;;;;;5007571;28;20312;-71
2022/11/14 02:59:59;;;;;;;339.07;41.00;;;3.10;99.90;;;;;;5024646;28;20571;-71
2022/11/14 03:02:28;;;;;;;382.37;44.13;;;3.10;99.90;;;;;;5001865;28;20320;-72
2022/11/14 03:04:55;;;;;;;365.30;42.00;;;3.20;99.90;;;;;;5024221;28;20349;-71
2022/11/14 03:07:22;;;;;;;516.50;52.17;;;3.20;99.90;;;;;;5023184;28;20308;-71
2022/11/14 03:09:49;;;;;;;344.03;40.57;;;3.10;99.90;;;;;;5021855;28;20233;-71
2022/11/14 03:12:16;;;;;;;528.50;54.57;;;3.20;99.90;;;;;;5004204;28;20212;-71
2022/11/14 03:14:44;;;;;;;545.70;55.27;;;3.20;99.90;;;;;;5021202;28;20213;-71
2022/11/14 03:17:10;;;;;;;436.57;46.67;;;3.20;99.90;;;;;;5018832;28;20230;-71
2022/11/14 03:19:37;;;;;;;348.47;42.20;;;3.20;99.90;;;;;;5021718;28;20948;-71
2022/11/14 03:22:04;;;;;;;390.13;42.37;;;3.20;99.90;;;;;;5022365;28;20825;-71
2022/11/14 03:24:31;;;;;;;441.80;48.57;;;3.30;99.90;;;;;;5022800;28;20236;-72
2022/11/14 03:26:58;;;;;;;348.20;41.60;;;3.30;99.90;;;;;;5023166;28;20243;-71
2022/11/14 03:29:25;;;;;;;349.90;41.03;;;3.30;99.90;;;;;;5019966;28;20349;-72
2022/11/14 03:31:51;;;;;;;526.47;53.67;;;3.30;99.90;;;;;;5025453;28;20212;-71
2022/11/14 03:34:18;;;;;;;477.97;49.00;;;3.30;99.90;;;;;;5020501;28;20199;-72
2022/11/14 03:36:45;;;;;;;456.97;46.23;;;3.30;99.90;;;;;;5021853;28;20229;-71
2022/11/14 03:39:11;;;;;;;493.93;53.97;;;3.30;99.90;;;;;;5021244;28;20216;-72
2022/11/14 03:41:38;;;;;;;489.03;51.27;;;3.40;99.90;;;;;;5009352;28;20206;-72
2022/11/14 03:44:05;;;;;;;453.93;49.03;;;3.40;99.90;;;;;;5022477;28;20274;-71
2022/11/14 03:46:31;;;;;;;341.87;41.03;;;3.40;99.90;;;;;;5002878;28;20224;-71
2022/11/14 03:48:58;;;;;;;361.63;42.97;;;3.40;99.90;;;;;;5018294;28;20694;-71
2022/11/14 03:51:25;;;;;;;396.00;43.13;;;3.40;99.90;;;;;;5021446;28;20323;-71
2022/11/14 03:53:52;;;;;;;400.00;44.90;;;3.40;99.90;;;;;;5028029;28;20220;-71
2022/11/14 03:56:19;;;;;;;311.37;37.10;;;3.40;99.90;;;;;;5023088;28;20308;-71
2022/11/14 03:58:45;;;;;;;307.00;36.50;;;3.40;99.90;;;;;;5020764;28;20243;-72
2022/11/14 04:01:12;;;;;;;379.77;43.20;;;3.50;99.90;;;;;;5023017;28;20513;-72
2022/11/14 04:03:39;;;;;;;332.30;38.30;;;3.50;99.90;;;;;;5019871;28;20304;-71
2022/11/14 04:06:06;;;;;;;371.57;40.53;;;3.50;99.90;;;;;;5022447;28;20251;-72
2022/11/14 04:08:33;;;;;;;256.70;34.20;;;3.50;99.90;;;;;;5019659;28;20318;-71
2022/11/14 04:10:59;;;;;;;280.97;35.13;;;3.50;99.90;;;;;;5010258;28;20220;-71
2022/11/14 04:13:26;;;;;;;200.90;32.20;;;3.50;99.90;;;;;;5020131;28;20290;-71
2022/11/14 04:15:57;;;;;;;218.43;32.60;;;3.50;99.90;;;;;;5021984;28;20241;-71
2022/11/14 04:18:24;;;;;;;219.53;32.50;;;3.50;99.90;;;;;;5019856;28;20210;-72
2022/11/14 04:20:52;;;;;;;193.17;31.83;;;3.40;99.90;;;;;;5022030;28;20253;-72
2022/11/14 04:23:19;;;;;;;306.70;37.80;;;3.40;99.90;;;;;;5025100;28;20309;-72
2022/11/14 04:25:46;;;;;;;370.07;41.33;;;3.40;99.90;;;;;;5002452;28;20268;-72
2022/11/14 04:28:13;;;;;;;244.97;33.83;;;3.40;99.90;;;;;;5020468;28;20336;-72
2022/11/14 04:30:40;;;;;;;301.53;39.97;;;3.40;99.90;;;;;;5023868;28;20322;-71
2022/11/14 04:33:07;;;;;;;376.07;40.77;;;3.40;99.90;;;;;;5003631;28;20279;-71
2022/11/14 04:35:34;;;;;;;373.17;40.13;;;3.30;99.90;;;;;;5018202;28;20229;-71
2022/11/14 04:38:01;;;;;;;159.30;29.33;;;3.30;99.90;;;;;;5021573;28;20218;-72
2022/11/14 04:40:27;;;;;;;231.97;33.17;;;3.30;99.90;;;;;;5020147;28;20765;-71
2022/11/14 04:42:54;;;;;;;235.13;31.97;;;3.30;99.90;;;;;;5021836;28;20696;-72
2022/11/14 04:45:21;;;;;;;230.37;31.03;;;3.30;99.90;;;;;;5019594;28;20267;-72
2022/11/14 04:47:48;;;;;;;190.70;30.17;;;3.20;99.90;;;;;;5003071;28;20233;-71
2022/11/14 04:50:14;;;;;;;187.23;31.93;;;3.20;99.90;;;;;;5020945;28;20246;-72
2022/11/14 04:52:41;;;;;;;173.03;30.17;;;3.20;99.90;;;;;;5022387;28;20335;-71
2022/11/14 04:55:08;;;;;;;210.27;32.73;;;3.20;99.90;;;;;;5021093;28;20623;-73
2022/11/14 04:57:35;;;;;;;291.60;38.00;;;3.20;99.90;;;;;;5020307;28;20316;-73
2022/11/14 05:00:03;;;;;;;238.33;34.43;;;3.20;99.90;;;;;;5019508;28;20213;-71
2022/11/14 05:02:31;;;;;;;205.93;30.40;;;3.30;99.90;;;;;;5022249;28;20246;-71
2022/11/14 05:04:58;;;;;;;201.63;31.87;;;3.30;99.90;;;;;;5018588;28;20306;-71
2022/11/14 05:07:24;;;;;;;225.93;31.93;;;3.30;99.90;;;;;;5020085;28;20230;-72
2022/11/14 05:09:51;;;;;;;191.97;31.03;;;3.30;99.90;;;;;;5021006;28;20315;-71
2022/11/14 05:12:18;;;;;;;157.23;29.50;;;3.30;99.90;;;;;;5020672;28;20368;-72
2022/11/14 05:14:45;;;;;;;246.90;35.13;;;3.30;99.90;;;;;;5020122;28;20580;-72
2022/11/14 05:17:11;;;;;;;285.77;36.23;;;3.30;99.90;;;;;;5004463;28;20208;-72
2022/11/14 05:19:38;;;;;;;222.90;35.20;;;3.30;99.90;;;;;;5019005;28;20307;-74
2022/11/14 05:22:05;;;;;;;252.53;32.60;;;3.30;99.90;;;;;;5022588;28;20232;-71
2022/11/14 05:24:31;;;;;;;396.87;42.30;;;3.30;99.90;;;;;;5022203;28;20291;-72
2022/11/14 05:26:58;;;;;;;242.80;33.10;;;3.30;99.90;;;;;;5019164;28;20692;-71
2022/11/14 05:29:25;;;;;;;334.53;38.40;;;3.30;99.90;;;;;;5004506;28;20260;-72
2022/11/14 05:31:52;;;;;;;293.30;36.57;;;3.30;99.90;;;;;;5022109;28;20592;-72
2022/11/14 05:34:18;;;;;;;263.20;34.13;;;3.30;99.90;;;;;;5024191;28;20643;-71
2022/11/14 05:36:45;;;;;;;184.17;29.37;;;3.30;99.90;;;;;;5004974;28;20263;-72
2022/11/14 05:39:12;;;;;;;175.60;29.33;;;3.30;99.90;;;;;;5025612;28;20314;-71
2022/11/14 05:41:38;;;;;;;169.83;29.17;;;3.30;99.90;;;;;;5023532;28;20324;-72
2022/11/14 05:44:06;;;;;;;179.53;30.50;;;3.30;99.90;;;;;;5028873;28;20256;-73
2022/11/14 05:46:32;;;;;;;194.33;31.33;;;3.30;99.90;;;;;;5025370;28;20243;-71
2022/11/14 05:48:59;;;;;;;190.93;31.47;;;3.30;99.90;;;;;;5022775;28;20254;-71
2022/11/14 05:51:26;;;;;;;244.73;34.07;;;3.30;99.90;;;;;;5008161;28;20744;-72
2022/11/14 05:53:54;;;;;;;263.60;35.90;;;3.30;99.90;;;;;;5025454;28;20621;-72
2022/11/14 05:56:21;;;;;;;276.27;36.17;;;3.20;99.90;;;;;;5007168;28;20216;-72
2022/11/14 05:58:47;;;;;;;185.57;29.23;;;3.10;99.90;;;;;;5023894;28;20263;-72
2022/11/14 06:01:17;;;;;;;230.80;33.97;;;3.10;99.90;;;;;;5022422;28;20206;-73
2022/11/14 06:03:46;;;;;;;207.47;32.53;;;3.10;99.90;;;;;;5027854;28;20297;-71
2022/11/14 06:06:18;;;;;;;158.47;28.10;;;3.10;99.90;;;;;;5020824;28;20253;-72
2022/11/14 06:08:45;;;;;;;242.00;33.37;;;3.00;99.90;;;;;;5019042;28;20221;-71
2022/11/14 06:11:14;;;;;;;185.63;30.77;;;3.00;99.90;;;;;;5024578;28;20501;-72
2022/11/14 06:13:41;;;;;;;258.80;36.63;;;3.00;99.90;;;;;;5023387;28;20236;-71
2022/11/14 06:16:11;;;;;;;271.50;35.00;;;3.00;99.90;;;;;;5025226;28;20567;-71
2022/11/14 06:18:38;;;;;;;113.00;26.93;;;2.90;99.90;;;;;;5005274;28;20209;-72
2022/11/14 06:21:11;;;;;;;275.30;37.50;;;2.90;99.90;;;;;;5020662;28;20263;-72
2022/11/14 06:23:38;;;;;;;261.33;35.40;;;2.90;99.90;;;;;;5024250;28;20640;-72
2022/11/14 06:26:09;;;;;;;191.17;30.20;;;2.90;99.90;;;;;;5008883;28;20204;-70
2022/11/14 06:28:36;;;;;;;293.07;36.33;;;2.90;99.90;;;;;;5022448;28;20207;-72
2022/11/14 06:31:04;;;;;;;314.43;38.20;;;2.90;99.90;;;;;;5021544;28;20745;-71
2022/11/14 06:33:35;;;;;;;181.87;32.70;;;2.90;99.90;;;;;;5026818;28;20207;-71
2022/11/14 06:36:05;;;;;;;206.03;34.40;;;2.90;99.90;;;;;;5024060;28;20223;-71
2022/11/14 06:38:34;;;;;;;240.73;34.00;;;2.90;99.90;;;;;;5021726;28;20732;-70
2022/11/14 06:41:13;;;;;;;278.17;37.20;;;2.90;99.90;;;;;;5021893;28;20507;-71
2022/11/14 06:43:45;;;;;;;230.50;32.43;;;2.90;99.90;;;;;;5024511;28;20604;-72
2022/11/14 06:46:15;;;;;;;215.50;34.83;;;2.90;99.90;;;;;;5022011;28;20669;-71
2022/11/14 06:48:43;;;;;;;195.73;30.80;;;2.90;99.90;;;;;;5018414;28;20975;-72
2022/11/14 06:51:11;;;;;;;227.13;33.53;;;3.00;99.90;;;;;;5020706;28;20689;-71
2022/11/14 06:53:39;;;;;;;335.67;41.70;;;2.90;99.90;;;;;;5022915;28;20268;-71
2022/11/14 06:56:11;;;;;;;185.97;31.63;;;2.90;99.90;;;;;;5021923;28;20285;-70
2022/11/14 06:58:45;;;;;;;168.27;30.97;;;2.90;99.90;;;;;;5019285;28;20259;-70
2022/11/14 07:01:17;;;;;;;224.20;32.90;;;2.90;99.90;;;;;;5023354;28;20240;-71
2022/11/14 07:03:45;;;;;;;127.30;27.73;;;2.80;99.90;;;;;;5017122;28;20265;-71
2022/11/14 07:06:22;;;;;;;124.90;28.20;;;2.80;99.90;;;;;;5007053;28;20720;-71
2022/11/14 07:08:50;;;;;;;185.70;32.80;;;2.70;99.90;;;;;;5022014;28;20214;-70
2022/11/14 07:11:22;;;;;;;174.47;32.77;;;2.70;99.90;;;;;;5020777;28;20236;-71
2022/11/14 07:13:50;;;;;;;151.53;29.67;;;2.70;99.90;;;;;;5020339;28;20216;-71
2022/11/14 07:16:18;;;;;;;118.23;27.57;;;2.70;99.90;;;;;;5019839;28;20715;-70
2022/11/14 07:18:45;;;;;;;139.93;29.10;;;2.60;99.90;;;;;;5022623;28;20584;-71
2022/11/14 07:21:14;;;;;;;106.63;26.87;;;2.60;99.90;;;;;;5021233;28;20326;-72
2022/11/14 07:23:41;;;;;;;111.10;26.90;;;2.60;99.90;;;;;;5022908;28;20248;-69
2022/11/14 07:26:10;;;;;;;97.17;26.83;;;2.60;99.90;;;;;;5021886;28;20280;-71
2022/11/14 07:28:39;;;;;;;134.57;28.87;;;2.60;99.90;;;;;;5023570;28;20250;-71
2022/11/14 07:31:08;;;;;;;166.60;31.53;;;2.60;99.90;;;;;;5022436;28;20283;-71
2022/11/14 07:33:35;;;;;;;133.40;29.13;;;2.50;99.90;;;;;;5023541;28;20294;-71
2022/11/14 07:36:02;;;;;;;190.43;34.53;;;2.60;99.90;;;;;;5020683;28;20220;-71
2022/11/14 07:38:30;;;;;;;162.10;30.63;;;2.60;99.90;;;;;;5022624;28;20250;-70
2022/11/14 07:41:00;;;;;;;197.50;34.60;;;2.60;99.90;;;;;;4998796;28;20211;-70
2022/11/14 07:43:28;;;;;;;97.80;29.67;;;2.60;99.90;;;;;;5023169;28;20286;-70
2022/11/14 07:45:59;;;;;;;102.97;30.70;;;2.60;99.90;;;;;;5022574;28;20731;-72
2022/11/14 07:48:27;;;;;;;122.03;32.13;;;2.60;99.90;;;;;;5021798;28;20572;-72
2022/11/14 07:51:15;;;;;;;202.23;32.50;;;2.70;99.90;;;;;;5026752;28;20225;-70
2022/11/14 07:53:42;;;;;;;112.40;28.87;;;2.70;99.90;;;;;;5009587;28;20199;-71
2022/11/14 07:56:09;;;;;;;152.77;33.83;;;2.80;99.90;;;;;;5026382;28;20706;-72
2022/11/14 08:06:39;;;;;;;122.63;30.13;;;2.80;99.90;;;;;;4877472;29;20206;-92
2022/11/14 08:09:40;;;;;;;97.87;28.60;;;2.90;99.90;;;;;;4822725;29;20293;-90
2022/11/14 08:13:08;;;;;;;;;;;;;;;;;;;;;
2022/11/14 08:16:12;;;;;;;101.63;30.30;;;3.10;99.90;;;;;;4932235;29;20344;-90
2022/11/14 08:18:59;;;;;;;119.00;31.37;;;3.00;99.90;;;;;;4948970;29;20217;-90
2022/11/14 08:21:44;;;;;;;123.17;31.73;;;3.00;99.90;;;;;;4955035;29;20229;-89
2022/11/14 08:24:23;;;;;;;92.77;29.13;;;3.10;99.90;;;;;;4943698;29;20312;-90
2022/11/14 08:27:04;;;;;;;113.40;30.80;;;3.10;99.90;;;;;;4944771;29;20216;-89
2022/11/14 08:29:45;;;;;;;94.20;30.13;;;3.10;99.90;;;;;;4938005;29;20220;-89
2022/11/14 08:32:29;;;;;;;81.93;28.43;;;3.10;99.90;;;;;;4938766;29;20204;-90
2022/11/14 08:35:16;;;;;;;88.43;30.90;;;3.20;99.90;;;;;;4975777;28;20315;-90
2022/11/14 08:38:19;;;;;;;83.63;29.80;;;3.20;99.90;;;;;;4983789;28;20266;-89
2022/11/14 08:41:41;;;;;;;89.77;29.37;;;3.20;99.90;;;;;;4989465;28;20250;-88
2022/11/14 08:44:43;;;;;;;;;;;;;;;;;;;;;
2022/11/14 08:47:30;;;;;;;79.33;29.00;;;3.20;99.90;;;;;;4999291;28;20835;-89
2022/11/14 08:50:44;;;;;;;86.13;29.63;;;3.30;99.90;;;;;;4985537;28;20224;-89
2022/11/14 08:53:37;;;;;;;88.20;29.53;;;3.30;99.90;;;;;;4980584;28;20213;-90
2022/11/14 08:56:21;;;;;;;98.87;32.23;;;3.30;99.90;;;;;;4978528;28;20682;-89
2022/11/14 08:59:02;;;;;;;96.07;33.83;;;3.40;99.90;;;;;;4971815;28;20334;-90
2022/11/14 09:02:25;;;;;;;103.53;32.73;;;3.40;99.90;;;;;;4905300;29;20209;-89
2022/11/14 09:05:21;;;;;;;;;;;;;;;;;;;;;
2022/11/14 09:08:09;;;;;;;119.87;36.77;;;3.70;99.90;;;;;;4924395;29;20297;-91
2022/11/14 09:11:04;;;;;;;119.83;36.33;;;3.60;99.90;;;;;;4839251;29;20253;-91
2022/11/14 09:13:52;;;;;;;121.57;36.27;;;3.70;99.90;;;;;;4819744;29;20224;-89
2022/11/14 09:16:49;;;;;;;101.53;34.97;;;3.70;99.90;;;;;;4797410;29;20218;-91
2022/11/14 09:20:02;;;;;;;;;;;;;;;;;;;;;
2022/11/14 09:22:53;;;;;;;107.37;36.03;;;3.90;99.90;;;;;;4826766;29;20703;-91
2022/11/14 09:29:09;;;;;;;113.03;36.47;;;4.00;99.90;;;;;;4920098;29;20227;-90
2022/11/14 09:31:48;;;;;;;115.33;39.30;;;4.10;99.90;;;;;;4925008;29;20228;-90
2022/11/14 09:34:43;;;;;;;118.47;37.07;;;3.80;99.90;;;;;;4921222;29;20218;-89
2022/11/14 09:37:43;;;;;;;113.43;38.20;;;4.40;99.90;;;;;;4919416;29;20598;-91
2022/11/14 09:41:18;;;;;;;118.50;38.57;;;4.80;99.90;;;;;;4922288;29;20235;-90
2022/11/14 09:48:12;;;;;;;115.17;37.50;;;5.00;99.90;;;;;;4926657;29;20212;-90
2022/11/14 09:54:49;;;;;;;113.33;39.73;;;;;;;;;;4965591;28;20199;-90
2022/11/14 09:57:26;;;;;;;120.87;41.87;;;4.70;99.90;;;;;;4979627;28;20218;-90
2022/11/14 10:00:49;;;;;;;119.03;41.20;;;4.80;99.90;;;;;;4965214;28;20223;-90
2022/11/14 10:03:42;;;;;;;119.73;39.67;;;4.90;99.90;;;;;;4902104;29;20232;-90
2022/11/14 10:06:58;;;;;;;126.20;42.30;;;5.00;99.90;;;;;;4948894;28;20224;-91
2022/11/14 10:10:41;;;;;;;127.63;43.23;;;5.10;99.90;;;;;;4985522;28;20222;-90
2022/11/14 10:13:38;;;;;;;139.93;45.23;;;5.20;99.90;;;;;;4938471;28;20238;-90
2022/11/14 10:17:15;;;;;;;130.77;44.30;;;5.40;99.90;;;;;;4968126;28;20217;-90
2022/11/14 10:20:14;;;;;;;117.13;43.80;;;5.60;99.90;;;;;;4977804;28;20276;-89
2022/11/14 10:23:12;;;;;;;109.17;41.70;;;5.80;99.90;;;;;;4975850;28;20234;-89
2022/11/14 10:25:53;;;;;;;103.97;42.00;;;5.90;99.90;;;;;;4960515;28;20215;-89
2022/11/14 10:29:02;;;;;;;95.60;39.13;;;6.00;99.90;;;;;;4977044;28;20275;-88
2022/11/14 10:32:03;;;;;;;92.13;36.70;;;6.20;99.90;;;;;;4961886;28;20280;-89
2022/11/14 10:38:45;;;;;;;75.23;33.57;;;6.30;99.90;;;;;;4891093;29;20281;-89
2022/11/14 10:42:13;;;;;;;;;;;;;;;;;;;;;
2022/11/14 10:45:49;;;;;;;77.27;33.83;;;6.60;99.90;;;;;;4867670;29;20237;-90
2022/11/14 10:48:51;;;;;;;;;;;;;;;;;;;;;
2022/11/14 10:51:46;;;;;;;54.13;28.27;;;6.80;99.90;;;;;;4863994;29;20304;-88
2022/11/14 10:58:42;;;;;;;53.07;26.63;;;7.00;99.90;;;;;;4841023;29;20295;-90
2022/11/14 11:05:41;;;;;;;44.83;23.23;;;7.20;99.90;;;;;;4902337;29;20582;-90
2022/11/14 11:15:44;;;;;;;38.37;21.43;;;7.60;99.90;;;;;;4877698;29;20573;-90
2022/11/14 11:19:04;;;;;;;38.57;20.77;;;7.50;99.90;;;;;;4850184;29;20284;-89
2022/11/14 11:21:47;;;;;;;36.23;20.63;;;7.60;99.90;;;;;;4855836;29;20232;-88
2022/11/14 11:24:33;;;;;;;35.57;20.67;;;7.70;99.90;;;;;;4849166;29;20253;-89
2022/11/14 11:27:29;;;;;;;;;;;;;;;;;;;;;
2022/11/14 11:30:48;;;;;;;39.57;20.17;;;7.80;99.90;;;;;;4876598;29;20232;-90
2022/11/14 11:33:23;;;;;;;34.37;19.67;;;7.90;99.90;;;;;;4860819;29;20288;-86
2022/11/14 11:36:28;;;;;;;36.00;18.97;;;8.00;99.90;;;;;;4856503;29;20232;-90
2022/11/14 11:38:59;;;;;;;30.60;18.33;;;8.10;99.90;;;;;;4855419;29;20211;-91
2022/11/14 11:41:40;;;;;;;36.33;19.73;;;8.10;99.90;;;;;;4853952;29;20674;-90
2022/11/14 11:45:28;;;;;;;30.20;18.13;;;8.20;99.90;;;;;;4882838;29;20206;-91
2022/11/14 11:52:33;;;;;;;32.40;18.83;;;8.40;99.90;;;;;;4906348;29;20266;-90
2022/11/14 11:55:57;;;;;;;;;;;;;;;;;;;;;
2022/11/14 12:03:10;;;;;;;31.80;18.80;;;8.40;99.90;;;;;;4890342;29;20254;-92
2022/11/14 12:06:39;;;;;;;34.30;20.03;;;8.50;99.90;;;;;;4889538;29;20234;-90
2022/11/14 12:10:04;;;;;;;;;;;;;;;;;;;;;
2022/11/14 12:13:31;;;;;;;32.53;18.67;;;8.50;99.90;;;;;;4839573;29;20220;-91
2022/11/14 12:16:31;;;;;;;33.40;19.93;;;8.60;99.90;;;;;;4835099;29;20223;-90
2022/11/14 12:23:36;;;;;;;31.47;19.27;;;8.80;99.90;;;;;;4901158;29;20207;-93
2022/11/14 12:30:50;;;;;;;32.17;18.90;;;8.90;99.90;;;;;;4932152;29;20203;-92
2022/11/14 12:33:48;;;;;;;36.30;21.23;;;8.90;99.90;;;;;;4907824;29;20305;-91
2022/11/14 12:36:52;;;;;;;38.20;20.90;;;9.70;99.90;;;;;;4936076;29;20275;-90
2022/11/14 12:39:49;;;;;;;;;;;;;;;;;;;;;
2022/11/14 12:43:06;;;;;;;;;;;;;;;;;;;;;
2022/11/14 12:46:07;;;;;;;40.67;23.90;;;9.10;99.90;;;;;;4945007;29;20249;-93
2022/11/14 12:49:41;;;;;;;41.20;23.87;;;8.40;99.90;;;;;;4943435;29;20688;-92
2022/11/14 12:53:12;;;;;;;41.40;23.77;;;9.00;99.90;;;;;;4929351;29;20234;-92
2022/11/14 12:56:35;;;;;;;;;;;;;;;;;;;;;
2022/11/14 13:00:03;;;;;;;;;;;;;;;;;;;;;
2022/11/14 13:03:33;;;;;;;;;;;;;;;;;;;;;
2022/11/14 13:07:01;;;;;;;;;;;;;;;;;;;;;
2022/11/14 13:10:49;;;;;;;37.30;22.50;;;9.50;99.90;;;;;;4909883;29;20233;-92
2022/11/14 13:24:20;;;;;;;35.80;22.37;;;9.80;99.90;;;;;;4872770;29;20220;-91
2022/11/14 13:27:30;;;;;;;37.17;24.03;;;10.40;99.90;;;;;;4874607;29;20254;-92
2022/11/14 13:31:02;;;;;;;35.47;24.33;;;9.70;99.90;;;;;;4884726;29;20217;-92
2022/11/14 13:34:15;;;;;;;37.30;23.87;;;9.20;99.90;;;;;;4922476;28;20200;-90
2022/11/14 13:37:39;;;;;;;35.17;22.40;;;9.70;99.90;;;;;;4954563;28;20726;-92
2022/11/14 13:45:07;;;;;;;;;;;;;;;;;;;;;
2022/11/14 13:48:36;;;;;;;35.63;23.07;;;9.60;99.90;;;;;;4945257;28;20211;-92
2022/11/14 13:51:42;;;;;;;35.87;23.47;;;9.50;99.90;;;;;;4978392;28;20231;-93
2022/11/14 13:55:13;;;;;;;39.17;24.33;;;9.50;99.90;;;;;;4958915;28;20215;-92
2022/11/14 13:58:22;;;;;;;35.17;21.57;;;9.20;99.90;;;;;;4926754;29;20221;-90
2022/11/14 14:01:16;;;;;;;34.43;22.33;;;9.40;99.90;;;;;;4977813;28;20238;-92
2022/11/14 14:04:27;;;;;;;38.87;22.17;;;9.40;99.90;;;;;;4964870;28;20216;-92
2022/11/14 14:07:57;;;;;;;37.83;22.80;;;9.40;99.90;;;;;;4934599;29;20204;-92
2022/11/14 14:11:41;;;;;;;35.23;21.40;;;9.30;99.90;;;;;;4950303;28;20213;-91
2022/11/14 14:15:14;;;;;;;32.90;21.13;;;9.20;99.90;;;;;;4859471;29;20216;-92
2022/11/14 14:18:47;;;;;;;32.00;20.07;;;9.20;99.90;;;;;;4940769;29;20204;-89
2022/11/14 14:22:13;;;;;;;28.20;19.27;;;9.20;99.90;;;;;;4904605;29;20222;-92
2022/11/14 14:25:39;;;;;;;;;;;;;;;;;;;;;
2022/11/14 14:29:16;;;;;;;;;;;;;;;;;;;;;
2022/11/14 14:36:34;;;;;;;;;;;;;;;;;;;;;
2022/11/14 14:44:14;;;;;;;;;;;;;;;;;;;;;
2022/11/14 15:02:16;;;;;;;27.83;17.50;;;9.00;99.90;;;;;;4855849;29;20246;-91
2022/11/14 15:05:20;;;;;;;24.67;16.77;;;9.10;99.90;;;;;;4887222;29;20217;-90
2022/11/14 15:08:15;;;;;;;;;;;;;;;;;;;;;
2022/11/14 15:11:21;;;;;;;25.20;17.00;;;8.80;99.90;;;;;;4899069;29;20233;-91
2022/11/14 15:14:03;;;;;;;27.77;17.27;;;9.00;99.90;;;;;;4920404;28;20208;-92
2022/11/14 15:16:52;;;;;;;28.77;17.03;;;9.10;99.90;;;;;;4962027;29;20325;-90
2022/11/14 15:20:27;;;;;;;27.57;17.73;;;9.00;99.90;;;;;;4968128;28;20239;-91
2022/11/14 15:23:35;;;;;;;26.80;17.07;;;9.00;99.90;;;;;;4977397;28;20241;-89
2022/11/14 15:26:36;;;;;;;26.83;17.03;;;9.00;99.90;;;;;;4969175;28;20665;-90
2022/11/14 15:29:56;;;;;;;26.07;16.87;;;8.90;99.90;;;;;;4980235;28;20204;-90
2022/11/14 15:32:51;;;;;;;28.03;17.33;;;9.00;99.90;;;;;;4963957;28;20266;-88
2022/11/14 15:36:15;;;;;;;;;;;;;;;;;;;;;
2022/11/14 15:40:13;;;;;;;26.17;16.37;;;9.00;99.90;;;;;;4951472;28;20227;-90
2022/11/14 15:43:51;;;;;;;;;;;;;;;;;;;;;
2022/11/14 15:47:15;;;;;;;27.27;16.23;;;9.00;99.90;;;;;;4887288;29;20221;-90
2022/11/14 15:50:51;;;;;;;25.10;15.80;;;9.40;99.90;;;;;;4861862;29;20211;-91
2022/11/14 15:53:58;;;;;;;26.97;16.97;;;9.00;99.90;;;;;;4871685;29;20298;-91